Time;durP1;ratioP1;P1;durP2;ratioP2;P2;SDS_P1;SDS_P2;PMS_P1;PMS_P2;Temp;Humidity;BMP_temperature;BMP_pressure;BME280_temperature;BME280_humidity;BME280_pressure;Samples;Min_cycle;Max_cycle;Signal;HPM_P1;HPM_P2
2023/06/12 04:16:59;;;;;;;9.57;6.40;;;17.00;91.00;;;;;;5252858;23;20100;-70
2023/06/12 04:19:26;;;;;;;11.38;6.15;;;17.10;91.10;;;;;;4994145;28;20037;-70
2023/06/12 04:21:52;;;;;;;10.02;6.93;;;17.10;90.80;;;;;;5024934;28;20350;-71
2023/06/12 04:24:19;;;;;;;8.80;5.97;;;17.20;91.50;;;;;;5013112;28;20038;-71
2023/06/12 04:26:46;;;;;;;9.50;6.82;;;17.30;91.20;;;;;;5003974;28;20037;-70
2023/06/12 04:29:14;;;;;;;10.20;6.22;;;17.30;91.10;;;;;;5009659;28;20030;-72
2023/06/12 04:31:41;;;;;;;6.70;5.88;;;17.40;91.20;;;;;;5004536;28;20223;-71
2023/06/12 04:34:07;;;;;;;8.18;5.82;;;17.40;90.90;;;;;;5023693;28;20088;-71
2023/06/12 04:36:37;;;;;;;10.00;5.82;;;17.40;91.10;;;;;;5022753;28;20022;-73
2023/06/12 04:39:05;;;;;;;8.60;5.85;;;17.40;91.20;;;;;;5023864;28;20045;-72
2023/06/12 04:41:32;;;;;;;8.25;5.88;;;17.40;90.90;;;;;;5031204;28;20038;-70
2023/06/12 04:43:59;;;;;;;7.85;5.45;;;17.50;91.00;;;;;;5003945;28;20030;-69
2023/06/12 04:46:28;;;;;;;8.25;6.00;;;17.60;90.60;;;;;;5016675;28;20061;-69
2023/06/12 04:48:55;;;;;;;7.65;5.57;;;17.60;90.90;;;;;;5021532;28;20080;-72
2023/06/12 04:51:23;;;;;;;7.78;5.20;;;17.60;90.80;;;;;;5003198;28;20038;-71
2023/06/12 04:53:49;;;;;;;7.15;5.55;;;17.60;90.90;;;;;;5019874;28;20030;-69
2023/06/12 04:56:20;;;;;;;7.00;5.03;;;17.70;90.40;;;;;;5004371;28;20251;-72
2023/06/12 04:58:46;;;;;;;7.25;5.20;;;17.70;90.40;;;;;;5019888;28;20201;-71
2023/06/12 05:01:14;;;;;;;7.82;5.03;;;17.80;90.00;;;;;;5013696;28;20022;-71
2023/06/12 05:03:40;;;;;;;6.63;5.00;;;17.90;90.20;;;;;;5024121;28;20185;-71
2023/06/12 05:06:07;;;;;;;6.28;4.50;;;17.90;90.00;;;;;;5022117;28;20643;-71
2023/06/12 05:08:35;;;;;;;8.02;5.03;;;18.00;89.40;;;;;;5022748;28;20033;-70
2023/06/12 05:11:01;;;;;;;9.30;5.45;;;18.00;89.70;;;;;;5024144;28;20033;-70
2023/06/12 05:13:26;;;;;;;7.95;4.80;;;18.10;89.10;;;;;;5013931;28;20026;-70
2023/06/12 05:15:52;;;;;;;6.93;4.88;;;18.20;89.10;;;;;;5020946;28;20060;-69
2023/06/12 05:18:18;;;;;;;7.50;5.30;;;18.30;88.60;;;;;;5019139;28;20197;-70
2023/06/12 05:20:44;;;;;;;14.85;11.60;;;18.30;88.30;;;;;;5009798;28;20049;-70
2023/06/12 05:23:10;;;;;;;12.55;7.28;;;18.40;88.30;;;;;;5019508;28;20022;-70
2023/06/12 05:25:36;;;;;;;6.65;4.80;;;18.50;87.90;;;;;;5022281;28;20090;-70
2023/06/12 05:28:03;;;;;;;5.97;4.32;;;18.70;87.10;;;;;;5022895;28;20029;-70
2023/06/12 05:30:30;;;;;;;6.10;4.90;;;18.70;86.60;;;;;;5022319;28;20033;-71
2023/06/12 05:32:58;;;;;;;7.50;4.78;;;18.80;86.40;;;;;;5022722;28;20048;-70
2023/06/12 05:35:25;;;;;;;6.95;5.00;;;18.90;86.10;;;;;;5021980;28;20029;-71
2023/06/12 05:37:51;;;;;;;7.00;4.68;;;19.00;86.10;;;;;;5023781;28;20203;-70
2023/06/12 05:40:17;;;;;;;6.32;4.95;;;19.10;86.10;;;;;;5022081;28;20089;-71
2023/06/12 05:42:44;;;;;;;7.35;4.88;;;19.20;85.30;;;;;;5018401;28;20019;-72
2023/06/12 05:45:10;;;;;;;6.82;4.72;;;19.20;84.70;;;;;;5002801;28;20037;-71
2023/06/12 05:47:35;;;;;;;7.65;4.90;;;19.30;85.00;;;;;;5003401;28;20034;-70
2023/06/12 05:50:01;;;;;;;7.28;5.00;;;19.40;84.50;;;;;;5003402;28;20368;-71
2023/06/12 05:52:28;;;;;;;6.13;4.63;;;19.50;83.90;;;;;;5002313;28;20101;-71
2023/06/12 05:54:54;;;;;;;8.18;4.95;;;19.60;83.90;;;;;;5002743;28;20220;-70
2023/06/12 05:57:19;;;;;;;6.65;4.70;;;19.70;83.90;;;;;;5001951;28;20076;-70
2023/06/12 05:59:47;;;;;;;7.63;4.78;;;19.80;83.60;;;;;;5006602;28;20030;-70
2023/06/12 06:02:14;;;;;;;10.30;5.55;;;19.90;82.80;;;;;;5022205;28;20021;-68
2023/06/12 06:04:40;;;;;;;8.85;5.07;;;20.00;83.00;;;;;;5022204;28;20223;-70
2023/06/12 06:07:07;;;;;;;10.73;5.03;;;20.00;82.70;;;;;;5021896;28;20026;-70
2023/06/12 06:09:34;;;;;;;7.80;5.38;;;20.00;82.80;;;;;;5022973;28;20082;-70
2023/06/12 06:12:00;;;;;;;7.95;5.43;;;20.20;83.40;;;;;;5022196;28;20084;-69
2023/06/12 06:14:29;;;;;;;7.78;5.10;;;20.30;82.80;;;;;;5021675;28;20219;-70
2023/06/12 06:16:55;;;;;;;10.20;5.20;;;20.40;82.90;;;;;;5022354;28;20049;-70
2023/06/12 06:19:23;;;;;;;6.30;4.85;;;20.50;82.10;;;;;;5022744;28;20057;-71
2023/06/12 06:21:49;;;;;;;9.18;5.35;;;20.70;82.00;;;;;;5020880;28;20026;-71
2023/06/12 06:24:15;;;;;;;6.10;4.80;;;20.80;81.60;;;;;;5022571;28;20034;-71
2023/06/12 06:26:40;;;;;;;7.53;5.18;;;20.90;81.70;;;;;;5022097;28;20101;-71
2023/06/12 06:29:08;;;;;;;7.03;4.97;;;21.00;81.10;;;;;;5021870;28;20029;-70
2023/06/12 06:31:33;;;;;;;8.55;5.05;;;21.10;81.10;;;;;;5021552;28;20337;-71
2023/06/12 06:34:00;;;;;;;7.25;4.80;;;21.20;80.40;;;;;;5022758;28;20081;-70
2023/06/12 06:36:26;;;;;;;12.90;4.85;;;21.20;80.60;;;;;;5022547;28;20026;-70
2023/06/12 06:38:53;;;;;;;8.82;4.95;;;21.30;80.50;;;;;;5021838;28;20029;-70
2023/06/12 06:41:19;;;;;;;11.68;5.85;;;21.40;80.20;;;;;;5016581;28;20014;-71
2023/06/12 06:43:45;;;;;;;16.02;6.22;;;21.50;79.50;;;;;;5021520;28;20395;-70
2023/06/12 06:46:13;;;;;;;17.20;7.43;;;21.50;79.50;;;;;;5021477;28;20030;-70
2023/06/12 06:48:39;;;;;;;11.95;5.43;;;21.60;79.50;;;;;;5021721;28;20022;-71
2023/06/12 06:51:06;;;;;;;24.90;8.05;;;21.70;79.30;;;;;;5021161;28;20029;-70
2023/06/12 06:53:32;;;;;;;10.25;6.10;;;21.90;79.50;;;;;;5022452;28;20028;-71
2023/06/12 06:55:59;;;;;;;7.05;4.60;;;21.90;78.40;;;;;;5022362;28;20184;-68
2023/06/12 06:58:26;;;;;;;7.88;5.15;;;22.10;78.10;;;;;;5021337;28;20022;-71
2023/06/12 07:00:52;;;;;;;7.10;5.28;;;22.20;77.90;;;;;;5021536;28;20053;-68
2023/06/12 07:03:18;;;;;;;7.05;4.53;;;22.30;77.90;;;;;;5016209;28;20029;-69
2023/06/12 07:05:45;;;;;;;7.63;5.47;;;22.30;77.20;;;;;;5021532;28;20037;-69
2023/06/12 07:08:11;;;;;;;7.63;5.07;;;22.40;76.90;;;;;;5021143;28;20029;-70
2023/06/12 07:10:39;;;;;;;5.45;4.38;;;22.60;76.00;;;;;;5020774;28;20029;-70
2023/06/12 07:13:05;;;;;;;7.43;4.38;;;22.70;74.80;;;;;;5022350;28;20251;-70
2023/06/12 07:15:40;;;;;;;7.82;4.43;;;22.80;74.30;;;;;;5020696;28;20116;-70
2023/06/12 07:18:06;;;;;;;6.70;4.47;;;22.80;73.60;;;;;;5021964;28;20038;-71
2023/06/12 07:20:31;;;;;;;9.52;4.45;;;22.90;73.30;;;;;;5022126;28;20076;-70
2023/06/12 07:22:58;;;;;;;7.55;4.70;;;23.00;72.20;;;;;;5018507;28;20045;-72
2023/06/12 07:25:23;;;;;;;9.45;4.60;;;23.00;71.90;;;;;;5021831;28;20030;-69
2023/06/12 07:27:49;;;;;;;5.82;4.47;;;23.10;72.30;;;;;;5022543;28;20030;-72
2023/06/12 07:30:15;;;;;;;7.40;4.20;;;23.10;71.80;;;;;;5024893;28;20030;-72
2023/06/12 07:32:41;;;;;;;5.05;4.00;;;23.20;72.30;;;;;;5024875;28;20026;-70
2023/06/12 07:35:08;;;;;;;7.60;4.38;;;23.30;72.10;;;;;;5024744;28;20327;-72
2023/06/12 07:37:35;;;;;;;6.50;5.10;;;23.40;72.00;;;;;;5007940;28;20330;-72
2023/06/12 07:40:04;;;;;;;9.10;6.10;;;23.60;70.80;;;;;;5025893;28;20038;-72
2023/06/12 07:42:30;;;;;;;6.00;4.30;;;23.70;69.70;;;;;;5023902;28;20033;-72
2023/06/12 07:44:56;;;;;;;5.35;4.13;;;23.70;69.00;;;;;;5020084;28;20109;-73
2023/06/12 07:47:22;;;;;;;7.60;4.53;;;23.70;69.60;;;;;;5004576;28;20057;-71
2023/06/12 07:49:48;;;;;;;5.82;4.35;;;23.60;68.90;;;;;;5005425;28;20097;-70
2023/06/12 07:52:14;;;;;;;8.77;3.95;;;23.80;70.00;;;;;;5004934;28;20106;-73
2023/06/12 07:54:39;;;;;;;5.57;3.80;;;23.90;69.50;;;;;;5004271;28;20302;-70
2023/06/12 07:57:06;;;;;;;5.97;4.18;;;24.10;69.40;;;;;;5004679;28;20050;-71
2023/06/12 07:59:32;;;;;;;7.13;4.45;;;24.30;69.10;;;;;;5003701;28;20034;-71
2023/06/12 08:01:59;;;;;;;6.45;4.00;;;24.30;68.80;;;;;;5004529;28;20076;-71
2023/06/12 08:04:26;;;;;;;5.72;4.10;;;24.30;68.60;;;;;;5006752;28;20030;-71
2023/06/12 08:06:54;;;;;;;7.07;4.63;;;24.30;68.40;;;;;;5024289;28;20022;-73
2023/06/12 08:09:22;;;;;;;4.95;4.15;;;24.40;68.00;;;;;;5024958;28;20022;-71
2023/06/12 08:11:47;;;;;;;4.38;3.58;;;24.40;67.80;;;;;;5023893;28;20026;-69
2023/06/12 08:14:13;;;;;;;6.18;4.28;;;24.40;66.60;;;;;;5025465;28;20053;-70
2023/06/12 08:16:41;;;;;;;6.38;3.72;;;24.40;66.70;;;;;;5022941;28;20053;-70
2023/06/12 08:19:08;;;;;;;6.97;4.13;;;24.60;66.20;;;;;;5015362;28;20053;-70
2023/06/12 08:21:36;;;;;;;9.37;4.13;;;24.60;66.30;;;;;;5012104;28;20208;-70
2023/06/12 08:24:02;;;;;;;5.55;4.03;;;24.70;66.60;;;;;;5007627;28;20455;-72
2023/06/12 08:26:29;;;;;;;7.77;4.23;;;24.60;66.80;;;;;;5018039;28;20029;-73
2023/06/12 08:28:57;;;;;;;6.78;4.32;;;24.60;68.50;;;;;;5019598;28;20023;-74
2023/06/12 08:31:25;;;;;;;10.23;6.30;;;24.70;68.80;;;;;;5020122;28;20026;-72
2023/06/12 08:33:51;;;;;;;6.43;4.50;;;24.90;65.60;;;;;;5020366;28;20234;-71
2023/06/12 08:36:17;;;;;;;5.40;4.18;;;24.90;66.10;;;;;;5013107;28;20034;-71
2023/06/12 08:38:43;;;;;;;4.93;3.88;;;25.10;65.00;;;;;;5023058;28;20067;-71
2023/06/12 08:41:11;;;;;;;5.95;4.20;;;25.30;63.90;;;;;;5023573;28;20029;-72
2023/06/12 08:43:37;;;;;;;7.47;4.05;;;25.40;63.30;;;;;;5023130;28;20034;-73
2023/06/12 08:46:07;;;;;;;5.63;3.58;;;25.50;62.10;;;;;;5018120;28;20032;-72
2023/06/12 08:48:33;;;;;;;4.90;3.72;;;25.60;62.00;;;;;;5004469;28;20038;-70
2023/06/12 08:51:02;;;;;;;6.30;3.88;;;25.60;61.60;;;;;;5004638;28;20356;-71
2023/06/12 08:53:28;;;;;;;4.72;3.58;;;25.80;61.10;;;;;;5014588;28;20033;-72
2023/06/12 08:55:55;;;;;;;6.97;3.42;;;26.20;60.30;;;;;;5024434;28;20030;-72
2023/06/12 08:58:21;;;;;;;6.03;4.10;;;26.30;60.40;;;;;;5023693;28;20295;-71
2023/06/12 09:00:47;;;;;;;6.57;4.25;;;26.30;60.80;;;;;;5024061;28;20026;-70
2023/06/12 09:03:14;;;;;;;6.53;4.07;;;26.20;60.10;;;;;;5023944;28;20032;-69
2023/06/12 09:05:40;;;;;;;7.15;3.67;;;26.10;60.20;;;;;;5021956;28;20324;-72
2023/06/12 09:08:06;;;;;;;5.15;3.47;;;26.30;59.70;;;;;;5019359;28;20018;-71
2023/06/12 09:10:34;;;;;;;5.88;3.78;;;26.40;58.70;;;;;;5023573;28;20029;-72
2023/06/12 09:13:04;;;;;;;12.65;9.43;;;26.50;58.70;;;;;;5012902;28;20026;-70
2023/06/12 09:15:30;;;;;;;7.65;5.03;;;26.60;58.60;;;;;;5003376;28;20089;-72
2023/06/12 09:17:56;;;;;;;8.32;3.75;;;26.60;58.00;;;;;;5004684;28;20313;-71
2023/06/12 09:20:29;;;;;;;6.40;4.10;;;26.70;57.80;;;;;;5009262;28;20076;-71
2023/06/12 09:23:04;;;;;;;6.50;4.00;;;26.50;57.60;;;;;;5008080;28;20034;-70
2023/06/12 09:25:34;;;;;;;8.63;3.83;;;26.70;57.90;;;;;;5017356;28;20029;-71
2023/06/12 09:28:03;;;;;;;7.07;3.70;;;26.80;57.70;;;;;;5015533;28;20049;-71
2023/06/12 09:30:37;;;;;;;7.38;4.53;;;26.90;57.30;;;;;;5023204;28;20026;-71
2023/06/12 09:33:03;;;;;;;9.70;7.22;;;26.90;57.80;;;;;;5023413;28;20368;-69
2023/06/12 09:35:29;;;;;;;5.75;3.70;;;27.30;57.30;;;;;;5019221;28;20065;-70
2023/06/12 09:37:58;;;;;;;5.75;3.70;;;27.50;55.50;;;;;;5003857;28;20065;-72
2023/06/12 09:40:24;;;;;;;9.68;3.88;;;27.50;55.60;;;;;;5006128;28;20277;-71
2023/06/12 09:42:50;;;;;;;5.97;3.47;;;27.20;56.20;;;;;;5003733;28;20034;-72
2023/06/12 09:45:23;;;;;;;5.18;3.70;;;27.10;55.70;;;;;;5015394;28;20029;-70
2023/06/12 09:47:51;;;;;;;14.13;10.80;;;26.90;56.00;;;;;;5018553;28;20030;-70
2023/06/12 09:50:18;;;;;;;8.90;4.85;;;27.00;56.40;;;;;;5003822;28;20045;-70
2023/06/12 09:52:46;;;;;;;5.65;3.80;;;27.20;55.20;;;;;;5002906;28;20029;-72
2023/06/12 09:55:13;;;;;;;8.07;4.13;;;27.30;55.20;;;;;;5017527;28;20034;-70
2023/06/12 09:57:42;;;;;;;5.70;3.87;;;27.20;55.80;;;;;;5023372;28;20036;-71
2023/06/12 10:00:09;;;;;;;7.20;3.55;;;27.00;56.30;;;;;;5034073;28;20028;-71
2023/06/12 10:02:43;;;;;;;5.50;3.58;;;26.90;56.60;;;;;;5032179;28;20040;-72
2023/06/12 10:05:24;;;;;;;6.63;3.88;;;26.90;56.90;;;;;;5022772;28;20034;-71
2023/06/12 10:07:54;;;;;;;8.00;3.95;;;26.90;56.60;;;;;;5040803;28;20356;-71
2023/06/12 10:10:22;;;;;;;7.22;3.67;;;26.80;56.70;;;;;;5007674;28;20416;-70
2023/06/12 10:12:51;;;;;;;6.03;3.85;;;26.90;56.60;;;;;;5016069;28;20034;-71
2023/06/12 10:15:18;;;;;;;6.78;3.92;;;27.20;56.10;;;;;;5017278;28;20034;-71
2023/06/12 10:17:45;;;;;;;6.22;3.90;;;27.20;55.80;;;;;;5013062;28;20211;-73
2023/06/12 10:20:12;;;;;;;5.63;3.85;;;27.30;56.00;;;;;;5016888;28;20041;-72
2023/06/12 10:22:40;;;;;;;5.03;3.55;;;27.40;56.20;;;;;;5017552;28;20115;-70
2023/06/12 10:25:08;;;;;;;4.78;3.88;;;27.50;54.80;;;;;;5018534;28;20338;-71
2023/06/12 10:27:36;;;;;;;5.90;3.60;;;27.60;54.30;;;;;;5015922;28;20038;-72
2023/06/12 10:30:03;;;;;;;6.13;3.75;;;27.70;54.20;;;;;;5021100;28;20085;-72
2023/06/12 10:32:32;;;;;;;4.72;3.70;;;27.80;54.20;;;;;;5020375;28;20132;-71
2023/06/12 10:35:01;;;;;;;6.00;3.90;;;27.80;54.00;;;;;;5017046;28;20048;-72
2023/06/12 10:37:32;;;;;;;7.35;4.00;;;27.60;54.40;;;;;;5015249;28;20030;-72
2023/06/12 10:40:10;;;;;;;6.00;3.88;;;27.30;55.00;;;;;;5007692;28;20030;-71
2023/06/12 10:42:54;;;;;;;8.40;3.97;;;27.20;56.10;;;;;;5017314;28;20224;-72
2023/06/12 10:45:22;;;;;;;6.68;3.70;;;27.40;56.40;;;;;;5015460;28;20041;-72
2023/06/12 10:48:03;;;;;;;5.72;3.60;;;27.60;53.30;;;;;;5015713;28;20022;-72
2023/06/12 10:50:33;;;;;;;7.13;3.97;;;27.80;53.70;;;;;;5017875;28;20072;-72
2023/06/12 10:53:04;;;;;;;5.43;3.50;;;27.80;54.10;;;;;;5014302;28;20324;-72
2023/06/12 10:55:31;;;;;;;5.18;3.72;;;27.70;54.00;;;;;;5004661;28;20037;-72
2023/06/12 10:58:08;;;;;;;4.85;3.78;;;27.50;53.70;;;;;;5015444;28;20077;-74
2023/06/12 11:00:43;;;;;;;5.22;3.50;;;27.40;54.20;;;;;;5011419;28;20053;-71
2023/06/12 11:03:14;;;;;;;7.22;4.40;;;27.40;54.30;;;;;;5018000;28;20029;-71
2023/06/12 11:05:58;;;;;;;6.22;4.65;;;27.60;55.00;;;;;;5020638;28;20315;-80
2023/06/12 11:08:27;;;;;;;6.93;3.95;;;27.60;54.80;;;;;;5012063;28;20221;-72
2023/06/12 11:10:53;;;;;;;5.30;3.60;;;27.60;55.00;;;;;;5018389;28;20040;-73
2023/06/12 11:13:24;;;;;;;6.63;4.05;;;27.90;55.40;;;;;;5030334;28;20054;-73
2023/06/12 11:15:51;;;;;;;5.63;3.40;;;28.10;54.00;;;;;;5010001;28;20049;-72
2023/06/12 11:18:17;;;;;;;7.15;4.07;;;28.30;54.00;;;;;;5017642;28;20089;-72
2023/06/12 11:20:53;;;;;;;5.85;3.60;;;28.30;53.70;;;;;;5021499;28;20342;-72
2023/06/12 11:23:27;;;;;;;4.50;3.55;;;28.30;53.30;;;;;;5014551;28;20029;-72
2023/06/12 11:25:55;;;;;;;5.40;3.58;;;28.30;53.20;;;;;;5018936;28;20049;-72
2023/06/12 11:28:25;;;;;;;6.57;3.65;;;28.50;53.20;;;;;;5011976;28;20034;-71
2023/06/12 11:30:53;;;;;;;6.43;3.70;;;28.60;52.60;;;;;;5010006;28;20022;-70
2023/06/12 11:33:20;;;;;;;5.05;3.60;;;28.70;52.40;;;;;;5018553;28;20041;-72
2023/06/12 11:35:48;;;;;;;5.50;3.50;;;29.10;51.50;;;;;;5019945;28;20235;-72
2023/06/12 11:38:16;;;;;;;4.13;3.42;;;29.10;51.30;;;;;;5023254;28;20026;-72
2023/06/12 11:40:43;;;;;;;5.03;3.10;;;29.50;50.70;;;;;;5022362;28;20037;-70
2023/06/12 11:43:09;;;;;;;5.20;3.13;;;29.80;50.00;;;;;;5025635;28;20014;-71
2023/06/12 11:45:41;;;;;;;5.47;3.20;;;30.60;48.80;;;;;;5016449;28;20093;-71
2023/06/12 11:48:14;;;;;;;5.85;3.00;;;31.10;49.30;;;;;;5017648;28;20327;-72
2023/06/12 11:50:44;;;;;;;4.38;2.92;;;31.80;47.90;;;;;;5023231;28;20032;-72
2023/06/12 11:53:12;;;;;;;4.88;2.90;;;32.50;47.70;;;;;;5013642;28;20023;-71
2023/06/12 11:55:38;;;;;;;3.58;2.83;;;33.30;46.90;;;;;;5017257;28;20315;-71
2023/06/12 11:58:04;;;;;;;4.63;2.97;;;34.00;45.90;;;;;;5018395;28;20024;-72
2023/06/12 12:00:32;;;;;;;4.10;3.00;;;34.20;45.00;;;;;;5018477;28;20220;-72
2023/06/12 12:02:58;;;;;;;;;;;34.80;45.20;;;;;;5020997;28;20018;-70
2023/06/12 12:05:24;;;;;;;3.65;2.70;;;35.80;44.90;;;;;;5013084;28;19909;-68
2023/06/12 12:08:00;;;;;;;4.25;2.90;;;36.10;44.30;;;;;;5007315;28;20235;-72
2023/06/12 12:10:27;;;;;;;6.53;3.25;;;36.30;44.10;;;;;;5025065;28;20205;-72
2023/06/12 12:13:01;;;;;;;5.57;3.15;;;36.20;43.70;;;;;;5018956;28;20126;-70
2023/06/12 12:15:30;;;;;;;6.93;3.30;;;36.20;44.10;;;;;;5004358;28;20219;-72
2023/06/12 12:17:57;;;;;;;4.63;2.72;;;37.10;42.70;;;;;;5021671;28;20080;-72
2023/06/12 12:20:25;;;;;;;5.03;3.30;;;37.30;42.60;;;;;;5025013;28;20026;-71
2023/06/12 12:22:50;;;;;;;;;;;37.90;42.50;;;;;;5024700;28;20038;-71
2023/06/12 12:25:21;;;;;;;3.70;3.00;;;36.90;42.60;;;;;;5024474;28;19912;-71
2023/06/12 12:27:49;;;;;;;6.75;4.60;;;37.00;43.00;;;;;;5024655;28;20249;-71
2023/06/12 12:30:15;;;;;;;;;;;38.00;42.50;;;;;;5023943;28;20049;-71
2023/06/12 12:32:50;;;;;;;5.15;4.00;;;39.20;41.50;;;;;;5017271;28;19980;-70
2023/06/12 12:35:16;;;;;;;7.03;3.13;;;39.50;40.90;;;;;;5021426;28;20050;-71
2023/06/12 12:37:43;;;;;;;5.32;3.10;;;40.10;41.20;;;;;;5023885;28;20037;-71
2023/06/12 12:40:10;;;;;;;;;;;40.20;40.70;;;;;;5016498;28;20057;-70
2023/06/12 12:42:41;;;;;;;4.47;3.00;;;40.20;40.80;;;;;;5004725;28;19901;-71
2023/06/12 12:45:09;;;;;;;3.22;2.58;;;39.20;40.50;;;;;;5004926;28;20441;-69
2023/06/12 12:47:35;;;;;;;5.97;3.13;;;39.30;41.00;;;;;;5015172;28;20033;-71
2023/06/12 12:50:03;;;;;;;4.85;2.97;;;39.80;40.40;;;;;;5023952;28;20030;-69
2023/06/12 12:52:30;;;;;;;8.57;3.08;;;40.20;40.50;;;;;;5023136;28;20038;-70
2023/06/12 12:54:56;;;;;;;4.40;3.03;;;40.70;39.30;;;;;;5018909;28;20045;-70
2023/06/12 12:57:22;;;;;;;3.42;2.75;;;39.80;40.10;;;;;;5005315;28;20046;-69
2023/06/12 12:59:49;;;;;;;4.05;2.80;;;40.00;40.00;;;;;;5004199;28;20078;-70
2023/06/12 13:02:16;;;;;;;4.82;2.58;;;40.30;39.50;;;;;;5005241;28;20049;-70
2023/06/12 13:04:42;;;;;;;4.03;2.88;;;41.10;39.30;;;;;;5012415;28;20034;-71
2023/06/12 13:07:08;;;;;;;3.75;2.90;;;41.70;38.60;;;;;;5019127;28;20097;-71
2023/06/12 13:09:34;;;;;;;5.05;3.10;;;42.20;37.90;;;;;;5022408;28;20029;-71
2023/06/12 13:12:00;;;;;;;3.67;2.58;;;42.20;38.50;;;;;;5023563;28;20025;-71
2023/06/12 13:14:26;;;;;;;4.05;2.80;;;42.80;38.40;;;;;;5023676;28;20056;-71
2023/06/12 13:16:52;;;;;;;3.85;3.00;;;42.90;38.70;;;;;;5017705;28;20046;-70
2023/06/12 13:19:18;;;;;;;4.78;3.00;;;43.20;38.30;;;;;;5023457;28;20049;-70
2023/06/12 13:21:43;;;;;;;5.18;3.15;;;44.10;38.10;;;;;;5023565;28;20040;-70
2023/06/12 13:24:10;;;;;;;3.42;2.72;;;44.40;37.70;;;;;;5023457;28;20103;-72
2023/06/12 13:26:36;;;;;;;7.33;3.13;;;43.60;37.50;;;;;;5018950;28;20141;-70
2023/06/12 13:29:02;;;;;;;3.63;3.07;;;43.50;37.00;;;;;;5019504;28;20477;-71
2023/06/12 13:31:28;;;;;;;3.00;2.50;;;44.50;37.10;;;;;;5017157;28;20029;-71
2023/06/12 13:33:54;;;;;;;6.53;2.90;;;44.90;36.90;;;;;;5017558;28;20083;-72
2023/06/12 13:36:20;;;;;;;3.33;2.50;;;44.30;36.30;;;;;;5017770;28;20093;-71
2023/06/12 13:38:46;;;;;;;4.20;3.13;;;43.60;37.60;;;;;;5022747;28;20025;-71
2023/06/12 13:41:12;;;;;;;3.73;2.80;;;44.20;37.30;;;;;;5023722;28;20259;-75
2023/06/12 13:43:41;;;;;;;5.32;3.25;;;44.10;37.40;;;;;;5023287;28;20092;-72
2023/06/12 13:46:06;;;;;;;4.90;3.03;;;43.50;37.00;;;;;;5023285;28;20072;-71
2023/06/12 13:48:32;;;;;;;4.15;2.78;;;43.10;37.50;;;;;;5022730;28;20037;-74
2023/06/12 13:50:59;;;;;;;3.40;2.83;;;42.50;37.80;;;;;;5020404;28;20350;-70
2023/06/12 13:53:28;;;;;;;4.50;2.50;;;43.30;37.90;;;;;;5017924;28;20037;-71
2023/06/12 13:55:54;;;;;;;5.28;2.90;;;43.90;37.20;;;;;;5017803;28;20045;-71
2023/06/12 13:58:20;;;;;;;5.72;3.20;;;44.40;37.10;;;;;;5017710;28;20080;-69
2023/06/12 14:00:46;;;;;;;4.13;2.72;;;44.00;36.40;;;;;;5022414;28;20053;-70
2023/06/12 14:03:12;;;;;;;3.28;2.50;;;44.20;36.70;;;;;;5019823;28;20026;-70
2023/06/12 14:05:38;;;;;;;4.72;2.90;;;44.20;36.60;;;;;;5018309;28;20029;-70
2023/06/12 14:08:04;;;;;;;4.45;2.80;;;44.60;36.70;;;;;;5021887;28;20097;-70
2023/06/12 14:10:31;;;;;;;4.18;2.65;;;45.10;36.20;;;;;;5003622;28;20065;-70
2023/06/12 14:12:57;;;;;;;6.78;2.95;;;45.70;35.80;;;;;;5001847;28;20338;-72
2023/06/12 14:15:23;;;;;;;3.78;2.63;;;45.40;35.70;;;;;;5005212;28;20034;-70
2023/06/12 14:17:49;;;;;;;3.45;2.90;;;44.90;36.20;;;;;;5022401;28;20315;-72
2023/06/12 14:20:15;;;;;;;4.80;2.70;;;46.20;36.30;;;;;;5021580;28;20060;-71
2023/06/12 14:22:43;;;;;;;3.57;2.70;;;46.40;35.40;;;;;;5022324;28;20429;-72
2023/06/12 14:25:09;;;;;;;5.68;2.83;;;47.00;34.60;;;;;;5022864;28;20089;-71
2023/06/12 14:27:35;;;;;;;4.50;2.63;;;47.00;34.90;;;;;;5015956;28;20359;-71
2023/06/12 14:30:02;;;;;;;4.38;2.47;;;46.70;36.00;;;;;;5022656;28;20040;-71
2023/06/12 14:32:28;;;;;;;6.25;2.55;;;47.00;35.70;;;;;;5023118;28;20096;-70
2023/06/12 14:34:53;;;;;;;4.57;2.73;;;46.90;34.60;;;;;;5022150;28;20256;-72
2023/06/12 14:37:19;;;;;;;4.53;2.80;;;45.80;35.00;;;;;;5023652;28;20084;-70
2023/06/12 14:39:45;;;;;;;2.83;2.50;;;46.10;35.30;;;;;;5025096;28;20083;-71
2023/06/12 14:42:12;;;;;;;3.40;2.80;;;46.20;35.80;;;;;;5023691;28;20041;-71
2023/06/12 14:44:37;;;;;;;;;;;46.70;35.40;;;;;;5006991;28;20114;-72
2023/06/12 14:47:03;;;;;;;4.20;2.90;;;46.60;35.30;;;;;;5016208;28;20195;-72
2023/06/12 14:49:29;;;;;;;5.30;4.22;;;44.30;35.70;;;;;;5026391;28;20300;-73
2023/06/12 14:51:55;;;;;;;3.90;2.90;;;42.70;36.50;;;;;;5026151;28;20508;-73
2023/06/12 14:54:20;;;;;;;3.95;3.08;;;42.30;36.80;;;;;;5026211;28;20022;-71
2023/06/12 14:56:46;;;;;;;4.05;2.83;;;43.70;36.50;;;;;;5025954;28;20051;-71
2023/06/12 14:59:12;;;;;;;3.33;2.95;;;45.20;35.60;;;;;;5023350;28;20296;-74
2023/06/12 15:01:37;;;;;;;3.53;2.83;;;45.10;35.40;;;;;;5005447;28;20041;-71
2023/06/12 15:04:03;;;;;;;4.13;3.22;;;46.10;35.20;;;;;;5006819;28;20029;-70
2023/06/12 15:06:29;;;;;;;5.65;3.05;;;45.60;35.40;;;;;;5007363;28;20069;-70
2023/06/12 15:08:55;;;;;;;4.43;2.90;;;45.90;35.10;;;;;;5015291;28;20089;-70
2023/06/12 15:11:20;;;;;;;4.50;3.03;;;46.40;34.90;;;;;;5017128;28;20366;-70
2023/06/12 15:13:46;;;;;;;3.30;2.63;;;45.70;35.30;;;;;;5008918;28;20126;-71
2023/06/12 15:16:12;;;;;;;3.90;2.55;;;45.40;35.30;;;;;;5010670;28;20375;-70
2023/06/12 15:18:37;;;;;;;3.40;2.70;;;45.50;35.10;;;;;;5006007;28;20030;-70
2023/06/12 15:21:03;;;;;;;5.03;2.78;;;45.70;34.70;;;;;;5006868;28;20065;-76
2023/06/12 15:23:30;;;;;;;3.63;2.72;;;45.50;35.10;;;;;;5012837;28;20426;-71
2023/06/12 15:25:55;;;;;;;6.18;4.20;;;46.10;35.10;;;;;;5025457;28;20041;-69
2023/06/12 15:28:21;;;;;;;3.72;3.33;;;46.60;35.20;;;;;;5009703;28;20026;-69
2023/06/12 15:30:47;;;;;;;5.68;2.90;;;46.40;35.00;;;;;;5005842;28;20172;-71
2023/06/12 15:33:13;;;;;;;3.10;2.78;;;46.70;35.40;;;;;;5014242;28;20101;-72
2023/06/12 15:35:38;;;;;;;6.45;3.00;;;47.00;35.10;;;;;;5025352;28;20061;-73
2023/06/12 15:38:38;;;;;;;3.55;2.90;;;45.90;34.50;;;;;;5026604;28;20022;-71
2023/06/12 15:41:06;;;;;;;4.95;3.00;;;44.30;35.60;;;;;;5026015;28;20033;-72
2023/06/12 15:43:34;;;;;;;4.55;3.03;;;43.30;36.00;;;;;;5026008;28;20022;-71
2023/06/12 15:46:00;;;;;;;;;;;43.70;35.70;;;;;;5025884;28;20048;-72
2023/06/12 15:48:26;;;;;;;5.43;3.03;;;44.30;35.60;;;;;;5024507;28;19910;-71
2023/06/12 15:50:53;;;;;;;4.05;3.03;;;45.60;34.90;;;;;;5024473;28;20044;-72
2023/06/12 15:53:18;;;;;;;;;;;46.40;34.60;;;;;;5024037;28;20219;-73
2023/06/12 15:55:45;;;;;;;6.50;3.20;;;46.40;34.50;;;;;;5021938;28;19951;-71
2023/06/12 15:58:10;;;;;;;5.50;2.88;;;45.70;34.50;;;;;;5025741;28;20068;-73
2023/06/12 16:00:36;;;;;;;3.38;2.92;;;44.90;34.70;;;;;;5025676;28;20038;-72
2023/06/12 16:03:02;;;;;;;4.05;2.70;;;44.60;35.10;;;;;;5024666;28;20334;-73
2023/06/12 16:05:28;;;;;;;3.90;2.67;;;44.50;34.30;;;;;;5025312;28;20034;-72
2023/06/12 16:07:54;;;;;;;5.80;3.20;;;44.20;34.80;;;;;;5024750;28;20240;-73
2023/06/12 16:10:19;;;;;;;4.32;2.85;;;44.40;35.00;;;;;;5025371;28;20034;-73
2023/06/12 16:12:45;;;;;;;4.57;3.25;;;45.00;35.00;;;;;;5024948;28;20033;-74
2023/06/12 16:15:11;;;;;;;4.40;3.38;;;44.60;34.60;;;;;;5024167;28;20300;-73
2023/06/12 16:17:36;;;;;;;3.50;3.13;;;44.10;34.60;;;;;;5025158;28;20046;-72
2023/06/12 16:20:03;;;;;;;4.18;3.00;;;43.80;34.70;;;;;;5024657;28;20048;-73
2023/06/12 16:22:29;;;;;;;3.53;3.00;;;43.60;35.00;;;;;;5023995;28;20029;-72
2023/06/12 16:24:55;;;;;;;4.90;3.13;;;42.40;35.70;;;;;;5023613;28;20032;-72
2023/06/12 16:27:21;;;;;;;3.38;2.75;;;42.90;35.30;;;;;;5015493;28;20046;-72
2023/06/12 16:29:46;;;;;;;3.50;2.97;;;43.10;35.80;;;;;;5003756;28;20097;-74
2023/06/12 16:32:12;;;;;;;4.45;2.90;;;43.20;35.10;;;;;;5004955;28;20038;-73
2023/06/12 16:34:38;;;;;;;3.80;2.95;;;42.70;35.10;;;;;;5005727;28;20296;-73
2023/06/12 16:37:04;;;;;;;6.10;3.30;;;41.90;35.70;;;;;;5008529;28;20026;-75
2023/06/12 16:39:34;;;;;;;4.05;2.70;;;41.30;35.90;;;;;;5004947;28;20041;-72
2023/06/12 16:41:59;;;;;;;6.57;3.20;;;41.40;36.00;;;;;;5004591;28;20030;-72
2023/06/12 16:44:25;;;;;;;5.78;3.05;;;41.90;35.60;;;;;;5003581;28;20209;-71
2023/06/12 16:46:51;;;;;;;5.35;3.15;;;41.60;35.30;;;;;;5004286;28;20034;-71
2023/06/12 16:49:19;;;;;;;4.93;2.97;;;41.30;35.70;;;;;;5004626;28;20042;-72
2023/06/12 16:51:44;;;;;;;4.38;3.47;;;41.20;35.80;;;;;;5004429;28;20044;-71
2023/06/12 16:54:12;;;;;;;4.82;3.10;;;42.00;35.50;;;;;;5004639;28;20058;-72
2023/06/12 16:56:38;;;;;;;;;;;41.50;35.20;;;;;;5008408;28;20026;-72
2023/06/12 16:59:04;;;;;;;5.28;3.13;;;42.10;35.30;;;;;;5004031;28;19901;-72
2023/06/12 17:01:30;;;;;;;3.80;3.20;;;42.70;35.30;;;;;;5004898;28;20049;-71
2023/06/12 17:03:55;;;;;;;5.28;3.08;;;42.50;35.40;;;;;;5003175;28;20034;-73